sensor_id;sensor_type;location;lat;lon;timestamp;temperature;humidity
6662;DHT22;3367;48.714;8.994;2023-08-07T00:01:18;10.90;1.00
6662;DHT22;3367;48.714;8.994;2023-08-07T00:03:45;10.80;1.00
6662;DHT22;3367;48.714;8.994;2023-08-07T00:06:12;10.80;1.00
6662;DHT22;3367;48.714;8.994;2023-08-07T00:08:39;10.80;1.00
6662;DHT22;3367;48.714;8.994;2023-08-07T00:11:08;10.70;1.00
6662;DHT22;3367;48.714;8.994;2023-08-07T00:13:34;10.70;1.00
6662;DHT22;3367;48.714;8.994;2023-08-07T00:16:01;10.70;1.00
6662;DHT22;3367;48.714;8.994;2023-08-07T00:18:28;10.70;1.00
6662;DHT22;3367;48.714;8.994;2023-08-07T00:20:55;10.60;1.00
6662;DHT22;3367;48.714;8.994;2023-08-07T00:23:22;10.60;1.00
6662;DHT22;3367;48.714;8.994;2023-08-07T00:25:49;10.60;1.00
6662;DHT22;3367;48.714;8.994;2023-08-07T00:28:17;10.60;1.00
6662;DHT22;3367;48.714;8.994;2023-08-07T00:30:43;10.50;1.00
6662;DHT22;3367;48.714;8.994;2023-08-07T00:33:10;10.50;1.00
6662;DHT22;3367;48.714;8.994;2023-08-07T00:35:37;10.50;1.00
6662;DHT22;3367;48.714;8.994;2023-08-07T00:38:04;10.50;1.00
6662;DHT22;3367;48.714;8.994;2023-08-07T00:40:36;10.50;1.00
6662;DHT22;3367;48.714;8.994;2023-08-07T00:43:03;10.50;1.00
6662;DHT22;3367;48.714;8.994;2023-08-07T00:45:35;10.40;1.00
6662;DHT22;3367;48.714;8.994;2023-08-07T00:48:03;10.40;1.00
6662;DHT22;3367;48.714;8.994;2023-08-07T00:50:30;10.40;1.00
6662;DHT22;3367;48.714;8.994;2023-08-07T00:52:57;10.40;1.00
6662;DHT22;3367;48.714;8.994;2023-08-07T00:55:24;10.40;1.00
6662;DHT22;3367;48.714;8.994;2023-08-07T00:57:51;10.40;1.00
6662;DHT22;3367;48.714;8.994;2023-08-07T01:00:18;10.40;1.00
6662;DHT22;3367;48.714;8.994;2023-08-07T01:02:47;10.50;1.00
6662;DHT22;3367;48.714;8.994;2023-08-07T01:05:16;10.40;1.00
6662;DHT22;3367;48.714;8.994;2023-08-07T01:07:43;10.50;1.00
6662;DHT22;3367;48.714;8.994;2023-08-07T01:10:10;10.50;1.00
6662;DHT22;3367;48.714;8.994;2023-08-07T01:12:42;10.70;1.00
6662;DHT22;3367;48.714;8.994;2023-08-07T01:15:14;10.70;1.00
6662;DHT22;3367;48.714;8.994;2023-08-07T01:17:43;10.70;1.00
6662;DHT22;3367;48.714;8.994;2023-08-07T01:20:12;10.80;1.00
6662;DHT22;3367;48.714;8.994;2023-08-07T01:22:40;10.80;99.90
6662;DHT22;3367;48.714;8.994;2023-08-07T01:25:07;10.80;99.90
6662;DHT22;3367;48.714;8.994;2023-08-07T01:27:37;10.80;99.90
6662;DHT22;3367;48.714;8.994;2023-08-07T01:30:20;10.80;99.90
6662;DHT22;3367;48.714;8.994;2023-08-07T01:32:54;10.90;99.90
6662;DHT22;3367;48.714;8.994;2023-08-07T01:35:26;10.80;99.90
6662;DHT22;3367;48.714;8.994;2023-08-07T01:37:56;10.90;68.00
6662;DHT22;3367;48.714;8.994;2023-08-07T01:40:23;10.90;4.60
6662;DHT22;3367;48.714;8.994;2023-08-07T01:42:50;10.90;1.00
6662;DHT22;3367;48.714;8.994;2023-08-07T01:45:22;10.90;1.00
6662;DHT22;3367;48.714;8.994;2023-08-07T01:47:49;10.90;88.40
6662;DHT22;3367;48.714;8.994;2023-08-07T01:50:17;10.80;1.00
6662;DHT22;3367;48.714;8.994;2023-08-07T01:52:44;10.90;1.00
6662;DHT22;3367;48.714;8.994;2023-08-07T01:55:12;11.00;64.20
6662;DHT22;3367;48.714;8.994;2023-08-07T01:57:39;11.00;41.30
6662;DHT22;3367;48.714;8.994;2023-08-07T02:00:07;11.00;65.40
6662;DHT22;3367;48.714;8.994;2023-08-07T02:02:34;11.00;1.00
6662;DHT22;3367;48.714;8.994;2023-08-07T02:05:01;11.00;1.00
6662;DHT22;3367;48.714;8.994;2023-08-07T02:07:28;11.00;1.00
6662;DHT22;3367;48.714;8.994;2023-08-07T02:09:55;11.10;1.00
6662;DHT22;3367;48.714;8.994;2023-08-07T02:12:23;11.00;1.00
6662;DHT22;3367;48.714;8.994;2023-08-07T02:14:50;11.20;1.00
6662;DHT22;3367;48.714;8.994;2023-08-07T02:17:16;11.00;1.00
6662;DHT22;3367;48.714;8.994;2023-08-07T02:19:43;11.00;99.90
6662;DHT22;3367;48.714;8.994;2023-08-07T02:22:10;11.10;1.00
6662;DHT22;3367;48.714;8.994;2023-08-07T02:24:36;11.00;99.90
6662;DHT22;3367;48.714;8.994;2023-08-07T02:27:03;11.10;99.90
6662;DHT22;3367;48.714;8.994;2023-08-07T02:29:31;11.10;99.90
6662;DHT22;3367;48.714;8.994;2023-08-07T02:31:59;11.10;99.90
6662;DHT22;3367;48.714;8.994;2023-08-07T02:34:26;11.10;3.70
6662;DHT22;3367;48.714;8.994;2023-08-07T02:36:53;11.10;1.00
6662;DHT22;3367;48.714;8.994;2023-08-07T02:39:19;11.10;1.00
6662;DHT22;3367;48.714;8.994;2023-08-07T02:41:46;11.10;1.00
6662;DHT22;3367;48.714;8.994;2023-08-07T02:44:13;11.10;1.00
6662;DHT22;3367;48.714;8.994;2023-08-07T02:46:41;11.10;1.00
6662;DHT22;3367;48.714;8.994;2023-08-07T02:49:07;11.10;1.00
6662;DHT22;3367;48.714;8.994;2023-08-07T02:51:34;11.10;1.00
6662;DHT22;3367;48.714;8.994;2023-08-07T02:54:01;11.10;1.00
6662;DHT22;3367;48.714;8.994;2023-08-07T02:56:27;11.10;1.00
6662;DHT22;3367;48.714;8.994;2023-08-07T02:58:54;11.00;1.00
6662;DHT22;3367;48.714;8.994;2023-08-07T03:01:23;10.90;1.00
6662;DHT22;3367;48.714;8.994;2023-08-07T03:03:51;10.90;1.00
6662;DHT22;3367;48.714;8.994;2023-08-07T03:06:18;10.90;1.00
6662;DHT22;3367;48.714;8.994;2023-08-07T03:08:45;10.90;1.00
6662;DHT22;3367;48.714;8.994;2023-08-07T03:11:11;10.80;1.00
6662;DHT22;3367;48.714;8.994;2023-08-07T03:13:38;10.80;1.00
6662;DHT22;3367;48.714;8.994;2023-08-07T03:16:05;10.80;1.00
6662;DHT22;3367;48.714;8.994;2023-08-07T03:18:33;10.80;1.00
6662;DHT22;3367;48.714;8.994;2023-08-07T03:21:01;10.70;1.00
6662;DHT22;3367;48.714;8.994;2023-08-07T03:23:28;10.70;1.00
6662;DHT22;3367;48.714;8.994;2023-08-07T03:26:02;10.70;1.00
6662;DHT22;3367;48.714;8.994;2023-08-07T03:28:29;10.70;1.00
6662;DHT22;3367;48.714;8.994;2023-08-07T03:30:55;10.70;1.00
6662;DHT22;3367;48.714;8.994;2023-08-07T03:33:22;10.70;1.00
6662;DHT22;3367;48.714;8.994;2023-08-07T03:35:49;10.70;1.00
6662;DHT22;3367;48.714;8.994;2023-08-07T03:38:17;10.70;1.00
6662;DHT22;3367;48.714;8.994;2023-08-07T03:40:44;10.60;1.00
6662;DHT22;3367;48.714;8.994;2023-08-07T03:43:11;10.60;99.90
6662;DHT22;3367;48.714;8.994;2023-08-07T03:45:37;10.60;73.40
6662;DHT22;3367;48.714;8.994;2023-08-07T03:48:04;10.60;48.50
6662;DHT22;3367;48.714;8.994;2023-08-07T03:50:31;10.60;1.00
6662;DHT22;3367;48.714;8.994;2023-08-07T03:53:00;10.50;15.90
6662;DHT22;3367;48.714;8.994;2023-08-07T03:55:28;10.50;1.00
6662;DHT22;3367;48.714;8.994;2023-08-07T03:57:55;10.50;99.10
6662;DHT22;3367;48.714;8.994;2023-08-07T04:00:21;10.50;48.10
6662;DHT22;3367;48.714;8.994;2023-08-07T04:02:48;10.40;39.60
6662;DHT22;3367;48.714;8.994;2023-08-07T04:05:15;10.40;11.60
6662;DHT22;3367;48.714;8.994;2023-08-07T04:07:42;10.50;1.00
6662;DHT22;3367;48.714;8.994;2023-08-07T04:10:09;10.50;1.00
6662;DHT22;3367;48.714;8.994;2023-08-07T04:12:37;10.50;1.00
6662;DHT22;3367;48.714;8.994;2023-08-07T04:15:04;10.40;1.00
6662;DHT22;3367;48.714;8.994;2023-08-07T04:17:32;10.40;1.00
6662;DHT22;3367;48.714;8.994;2023-08-07T04:19:58;10.40;1.00
6662;DHT22;3367;48.714;8.994;2023-08-07T04:22:25;10.40;1.00
6662;DHT22;3367;48.714;8.994;2023-08-07T04:24:52;10.40;1.00
6662;DHT22;3367;48.714;8.994;2023-08-07T04:27:19;10.30;1.00
6662;DHT22;3367;48.714;8.994;2023-08-07T04:29:47;10.30;43.80
6662;DHT22;3367;48.714;8.994;2023-08-07T04:32:13;10.30;99.90
6662;DHT22;3367;48.714;8.994;2023-08-07T04:34:40;10.30;1.00
6662;DHT22;3367;48.714;8.994;2023-08-07T04:37:07;10.30;1.00
6662;DHT22;3367;48.714;8.994;2023-08-07T04:39:33;10.30;33.80
6662;DHT22;3367;48.714;8.994;2023-08-07T04:42:01;10.30;99.90
6662;DHT22;3367;48.714;8.994;2023-08-07T04:44:28;10.30;63.90
6662;DHT22;3367;48.714;8.994;2023-08-07T04:46:56;10.30;99.90
6662;DHT22;3367;48.714;8.994;2023-08-07T04:49:22;10.40;99.90
6662;DHT22;3367;48.714;8.994;2023-08-07T04:51:49;10.40;96.00
6662;DHT22;3367;48.714;8.994;2023-08-07T04:54:16;10.50;1.00
6662;DHT22;3367;48.714;8.994;2023-08-07T04:56:42;10.50;1.00
6662;DHT22;3367;48.714;8.994;2023-08-07T04:59:10;10.60;1.00
6662;DHT22;3367;48.714;8.994;2023-08-07T05:01:36;10.60;1.00
6662;DHT22;3367;48.714;8.994;2023-08-07T05:04:05;10.70;1.00
6662;DHT22;3367;48.714;8.994;2023-08-07T05:06:32;10.80;1.00
6662;DHT22;3367;48.714;8.994;2023-08-07T05:08:59;10.80;1.00
6662;DHT22;3367;48.714;8.994;2023-08-07T05:11:25;10.90;1.00
6662;DHT22;3367;48.714;8.994;2023-08-07T05:13:52;11.00;1.00
6662;DHT22;3367;48.714;8.994;2023-08-07T05:16:19;11.10;1.00
6662;DHT22;3367;48.714;8.994;2023-08-07T05:18:45;11.20;1.00
6662;DHT22;3367;48.714;8.994;2023-08-07T05:21:13;11.30;1.00
6662;DHT22;3367;48.714;8.994;2023-08-07T05:23:40;11.30;1.00
6662;DHT22;3367;48.714;8.994;2023-08-07T05:26:07;11.40;99.90
6662;DHT22;3367;48.714;8.994;2023-08-07T05:28:33;11.50;1.00
6662;DHT22;3367;48.714;8.994;2023-08-07T05:31:00;11.60;99.90
6662;DHT22;3367;48.714;8.994;2023-08-07T05:33:27;11.70;99.90
6662;DHT22;3367;48.714;8.994;2023-08-07T05:35:53;11.70;99.90
6662;DHT22;3367;48.714;8.994;2023-08-07T05:38:22;11.80;99.90
6662;DHT22;3367;48.714;8.994;2023-08-07T05:40:49;11.90;99.90
6662;DHT22;3367;48.714;8.994;2023-08-07T05:43:16;12.00;99.90
6662;DHT22;3367;48.714;8.994;2023-08-07T05:45:43;12.10;99.90
6662;DHT22;3367;48.714;8.994;2023-08-07T05:48:11;12.30;92.30
6662;DHT22;3367;48.714;8.994;2023-08-07T05:50:38;12.20;1.00
6662;DHT22;3367;48.714;8.994;2023-08-07T05:53:05;12.30;1.00
6662;DHT22;3367;48.714;8.994;2023-08-07T05:55:33;12.30;1.00
6662;DHT22;3367;48.714;8.994;2023-08-07T05:58:00;12.30;1.00
6662;DHT22;3367;48.714;8.994;2023-08-07T06:00:26;12.20;1.00
6662;DHT22;3367;48.714;8.994;2023-08-07T06:02:53;12.40;1.00
6662;DHT22;3367;48.714;8.994;2023-08-07T06:05:20;12.50;1.00
6662;DHT22;3367;48.714;8.994;2023-08-07T06:07:47;12.50;1.00
6662;DHT22;3367;48.714;8.994;2023-08-07T06:10:13;12.50;1.00
6662;DHT22;3367;48.714;8.994;2023-08-07T06:12:42;12.60;1.00
6662;DHT22;3367;48.714;8.994;2023-08-07T06:15:09;12.70;1.00
6662;DHT22;3367;48.714;8.994;2023-08-07T06:17:36;12.70;1.00
6662;DHT22;3367;48.714;8.994;2023-08-07T06:20:06;12.70;1.00
6662;DHT22;3367;48.714;8.994;2023-08-07T06:22:34;12.70;1.00
6662;DHT22;3367;48.714;8.994;2023-08-07T06:25:01;12.60;1.00
6662;DHT22;3367;48.714;8.994;2023-08-07T06:27:28;12.70;1.00
6662;DHT22;3367;48.714;8.994;2023-08-07T06:29:57;12.70;1.00
6662;DHT22;3367;48.714;8.994;2023-08-07T06:32:25;12.60;1.00
6662;DHT22;3367;48.714;8.994;2023-08-07T06:34:51;12.70;1.00
6662;DHT22;3367;48.714;8.994;2023-08-07T06:37:18;12.80;1.00
6662;DHT22;3367;48.714;8.994;2023-08-07T06:39:45;12.80;1.00
6662;DHT22;3367;48.714;8.994;2023-08-07T06:42:12;12.80;1.00
6662;DHT22;3367;48.714;8.994;2023-08-07T06:44:39;12.80;1.00
6662;DHT22;3367;48.714;8.994;2023-08-07T06:47:07;12.90;1.00
6662;DHT22;3367;48.714;8.994;2023-08-07T06:49:34;12.90;1.00
6662;DHT22;3367;48.714;8.994;2023-08-07T06:52:01;13.20;1.00
6662;DHT22;3367;48.714;8.994;2023-08-07T06:54:28;13.20;1.00
6662;DHT22;3367;48.714;8.994;2023-08-07T06:56:55;13.30;1.00
6662;DHT22;3367;48.714;8.994;2023-08-07T06:59:22;13.50;1.00
6662;DHT22;3367;48.714;8.994;2023-08-07T07:01:49;13.60;1.00
6662;DHT22;3367;48.714;8.994;2023-08-07T07:04:17;13.80;1.00
6662;DHT22;3367;48.714;8.994;2023-08-07T07:06:44;14.00;1.00
6662;DHT22;3367;48.714;8.994;2023-08-07T07:09:11;14.00;99.90
6662;DHT22;3367;48.714;8.994;2023-08-07T07:11:42;13.90;1.00
6662;DHT22;3367;48.714;8.994;2023-08-07T07:14:09;13.90;1.00
6662;DHT22;3367;48.714;8.994;2023-08-07T07:16:35;13.90;99.90
6662;DHT22;3367;48.714;8.994;2023-08-07T07:19:03;14.00;1.00
6662;DHT22;3367;48.714;8.994;2023-08-07T07:21:33;14.30;1.00
6662;DHT22;3367;48.714;8.994;2023-08-07T07:24:00;14.80;1.00
6662;DHT22;3367;48.714;8.994;2023-08-07T07:26:27;15.40;1.00
6662;DHT22;3367;48.714;8.994;2023-08-07T07:28:54;15.40;1.00
6662;DHT22;3367;48.714;8.994;2023-08-07T07:31:20;15.80;1.00
6662;DHT22;3367;48.714;8.994;2023-08-07T07:33:47;16.20;1.00
6662;DHT22;3367;48.714;8.994;2023-08-07T07:36:15;16.40;1.00
6662;DHT22;3367;48.714;8.994;2023-08-07T07:38:45;16.50;1.00
6662;DHT22;3367;48.714;8.994;2023-08-07T07:41:12;16.80;1.00
6662;DHT22;3367;48.714;8.994;2023-08-07T07:43:39;17.30;1.00
6662;DHT22;3367;48.714;8.994;2023-08-07T07:46:06;17.70;1.00
6662;DHT22;3367;48.714;8.994;2023-08-07T07:48:33;18.00;1.00
6662;DHT22;3367;48.714;8.994;2023-08-07T07:50:59;18.10;1.00
6662;DHT22;3367;48.714;8.994;2023-08-07T07:53:26;18.20;1.00
6662;DHT22;3367;48.714;8.994;2023-08-07T07:55:54;18.10;1.00
6662;DHT22;3367;48.714;8.994;2023-08-07T07:58:21;17.90;1.00
6662;DHT22;3367;48.714;8.994;2023-08-07T08:00:47;17.50;1.00
6662;DHT22;3367;48.714;8.994;2023-08-07T08:03:14;17.60;1.00
6662;DHT22;3367;48.714;8.994;2023-08-07T08:05:41;17.40;1.00
6662;DHT22;3367;48.714;8.994;2023-08-07T08:08:08;17.30;1.00
6662;DHT22;3367;48.714;8.994;2023-08-07T08:10:35;17.10;1.00
6662;DHT22;3367;48.714;8.994;2023-08-07T08:13:03;16.90;1.00
6662;DHT22;3367;48.714;8.994;2023-08-07T08:15:30;16.50;1.00
6662;DHT22;3367;48.714;8.994;2023-08-07T08:17:56;16.60;1.00
6662;DHT22;3367;48.714;8.994;2023-08-07T08:20:23;16.60;1.00
6662;DHT22;3367;48.714;8.994;2023-08-07T08:22:50;17.00;1.00
6662;DHT22;3367;48.714;8.994;2023-08-07T08:25:17;17.30;1.00
6662;DHT22;3367;48.714;8.994;2023-08-07T08:27:44;17.40;1.00
6662;DHT22;3367;48.714;8.994;2023-08-07T08:30:12;17.60;1.00
6662;DHT22;3367;48.714;8.994;2023-08-07T08:32:39;17.50;1.00
6662;DHT22;3367;48.714;8.994;2023-08-07T08:35:06;17.50;1.00
6662;DHT22;3367;48.714;8.994;2023-08-07T08:37:33;17.40;1.00
6662;DHT22;3367;48.714;8.994;2023-08-07T08:40:00;17.30;1.00
6662;DHT22;3367;48.714;8.994;2023-08-07T08:42:27;17.30;1.00
6662;DHT22;3367;48.714;8.994;2023-08-07T08:44:55;17.20;1.00
6662;DHT22;3367;48.714;8.994;2023-08-07T08:47:25;17.00;1.00
6662;DHT22;3367;48.714;8.994;2023-08-07T08:50:02;17.10;1.00
6662;DHT22;3367;48.714;8.994;2023-08-07T08:52:31;17.20;1.00
6662;DHT22;3367;48.714;8.994;2023-08-07T08:54:58;17.30;1.00
6662;DHT22;3367;48.714;8.994;2023-08-07T08:57:25;17.10;1.00
6662;DHT22;3367;48.714;8.994;2023-08-07T08:59:53;17.10;1.00
6662;DHT22;3367;48.714;8.994;2023-08-07T09:02:20;17.10;1.00
6662;DHT22;3367;48.714;8.994;2023-08-07T09:04:48;17.20;1.00
6662;DHT22;3367;48.714;8.994;2023-08-07T09:07:15;17.30;1.00
6662;DHT22;3367;48.714;8.994;2023-08-07T09:09:42;17.50;1.00
6662;DHT22;3367;48.714;8.994;2023-08-07T09:12:15;17.70;1.00
6662;DHT22;3367;48.714;8.994;2023-08-07T09:14:44;17.70;1.00
6662;DHT22;3367;48.714;8.994;2023-08-07T09:17:12;17.70;1.00
6662;DHT22;3367;48.714;8.994;2023-08-07T09:19:39;17.80;1.00
6662;DHT22;3367;48.714;8.994;2023-08-07T09:22:07;17.70;1.00
6662;DHT22;3367;48.714;8.994;2023-08-07T09:24:35;18.10;1.00
6662;DHT22;3367;48.714;8.994;2023-08-07T09:27:02;18.30;1.00
6662;DHT22;3367;48.714;8.994;2023-08-07T09:29:31;18.10;1.00
6662;DHT22;3367;48.714;8.994;2023-08-07T09:32:06;18.20;1.00
6662;DHT22;3367;48.714;8.994;2023-08-07T09:34:34;18.20;1.00
6662;DHT22;3367;48.714;8.994;2023-08-07T09:37:01;17.90;1.00
6662;DHT22;3367;48.714;8.994;2023-08-07T09:39:30;17.80;1.00
6662;DHT22;3367;48.714;8.994;2023-08-07T09:41:56;17.90;1.00
6662;DHT22;3367;48.714;8.994;2023-08-07T09:44:23;18.00;1.00
6662;DHT22;3367;48.714;8.994;2023-08-07T09:46:50;17.70;1.00
6662;DHT22;3367;48.714;8.994;2023-08-07T09:49:17;17.50;1.00
6662;DHT22;3367;48.714;8.994;2023-08-07T09:51:45;17.20;1.00
6662;DHT22;3367;48.714;8.994;2023-08-07T09:54:12;17.00;1.00
6662;DHT22;3367;48.714;8.994;2023-08-07T09:56:41;17.00;1.00
6662;DHT22;3367;48.714;8.994;2023-08-07T09:59:08;17.20;1.00
6662;DHT22;3367;48.714;8.994;2023-08-07T10:01:36;17.10;1.00
6662;DHT22;3367;48.714;8.994;2023-08-07T10:04:05;17.10;1.00
6662;DHT22;3367;48.714;8.994;2023-08-07T10:06:32;17.00;1.00
6662;DHT22;3367;48.714;8.994;2023-08-07T10:09:01;17.00;1.00
6662;DHT22;3367;48.714;8.994;2023-08-07T10:11:28;17.00;1.00
6662;DHT22;3367;48.714;8.994;2023-08-07T10:13:57;17.20;1.00
6662;DHT22;3367;48.714;8.994;2023-08-07T10:16:26;17.40;1.00
6662;DHT22;3367;48.714;8.994;2023-08-07T10:18:52;17.50;1.00
6662;DHT22;3367;48.714;8.994;2023-08-07T10:21:19;17.40;1.00
6662;DHT22;3367;48.714;8.994;2023-08-07T10:23:48;17.50;1.00
6662;DHT22;3367;48.714;8.994;2023-08-07T10:26:16;17.40;1.00
6662;DHT22;3367;48.714;8.994;2023-08-07T10:28:43;17.30;1.00
6662;DHT22;3367;48.714;8.994;2023-08-07T10:31:12;17.50;1.00
6662;DHT22;3367;48.714;8.994;2023-08-07T10:33:41;17.60;1.00
6662;DHT22;3367;48.714;8.994;2023-08-07T10:36:08;17.70;1.00
6662;DHT22;3367;48.714;8.994;2023-08-07T10:38:36;17.80;1.00
6662;DHT22;3367;48.714;8.994;2023-08-07T10:41:06;17.70;1.00
6662;DHT22;3367;48.714;8.994;2023-08-07T10:43:37;17.70;1.00
6662;DHT22;3367;48.714;8.994;2023-08-07T10:46:05;17.80;1.00
6662;DHT22;3367;48.714;8.994;2023-08-07T10:48:39;17.60;1.00
6662;DHT22;3367;48.714;8.994;2023-08-07T10:51:07;17.50;1.00
6662;DHT22;3367;48.714;8.994;2023-08-07T10:53:35;17.30;1.00
6662;DHT22;3367;48.714;8.994;2023-08-07T10:56:03;17.40;1.00
6662;DHT22;3367;48.714;8.994;2023-08-07T10:58:31;17.50;1.00
6662;DHT22;3367;48.714;8.994;2023-08-07T11:01:21;17.50;1.00
6662;DHT22;3367;48.714;8.994;2023-08-07T11:03:54;17.60;1.00
6662;DHT22;3367;48.714;8.994;2023-08-07T11:06:23;17.60;1.00
6662;DHT22;3367;48.714;8.994;2023-08-07T11:08:52;17.70;1.00
6662;DHT22;3367;48.714;8.994;2023-08-07T11:11:19;17.80;1.00
6662;DHT22;3367;48.714;8.994;2023-08-07T11:13:45;17.90;1.00
6662;DHT22;3367;48.714;8.994;2023-08-07T11:16:12;17.80;1.00
6662;DHT22;3367;48.714;8.994;2023-08-07T11:18:39;17.80;1.00
6662;DHT22;3367;48.714;8.994;2023-08-07T11:21:08;17.90;1.00
6662;DHT22;3367;48.714;8.994;2023-08-07T11:23:36;17.60;1.00
6662;DHT22;3367;48.714;8.994;2023-08-07T11:26:03;17.60;1.00
6662;DHT22;3367;48.714;8.994;2023-08-07T11:28:29;17.70;1.00
6662;DHT22;3367;48.714;8.994;2023-08-07T11:30:56;17.60;1.00
6662;DHT22;3367;48.714;8.994;2023-08-07T11:33:24;17.30;1.00
6662;DHT22;3367;48.714;8.994;2023-08-07T11:35:51;17.10;1.00
6662;DHT22;3367;48.714;8.994;2023-08-07T11:38:31;16.80;1.00
6662;DHT22;3367;48.714;8.994;2023-08-07T11:43:27;16.40;1.00
6662;DHT22;3367;48.714;8.994;2023-08-07T11:45:54;16.30;1.00
6662;DHT22;3367;48.714;8.994;2023-08-07T11:48:23;16.10;1.00
6662;DHT22;3367;48.714;8.994;2023-08-07T11:50:51;16.00;1.00
6662;DHT22;3367;48.714;8.994;2023-08-07T11:53:18;15.90;1.00
6662;DHT22;3367;48.714;8.994;2023-08-07T11:55:53;15.80;1.00
6662;DHT22;3367;48.714;8.994;2023-08-07T11:58:21;15.80;1.00
6662;DHT22;3367;48.714;8.994;2023-08-07T12:00:49;15.80;1.00
6662;DHT22;3367;48.714;8.994;2023-08-07T12:03:26;15.80;1.00
6662;DHT22;3367;48.714;8.994;2023-08-07T12:05:54;15.70;1.00
6662;DHT22;3367;48.714;8.994;2023-08-07T12:08:21;15.80;1.00
6662;DHT22;3367;48.714;8.994;2023-08-07T12:10:53;15.70;1.00
6662;DHT22;3367;48.714;8.994;2023-08-07T12:13:24;15.40;1.00
6662;DHT22;3367;48.714;8.994;2023-08-07T12:15:53;15.20;1.00
6662;DHT22;3367;48.714;8.994;2023-08-07T12:18:20;15.00;1.00
6662;DHT22;3367;48.714;8.994;2023-08-07T12:20:49;14.90;47.80
6662;DHT22;3367;48.714;8.994;2023-08-07T12:23:16;14.80;1.00
6662;DHT22;3367;48.714;8.994;2023-08-07T12:25:43;14.80;78.30
6662;DHT22;3367;48.714;8.994;2023-08-07T12:28:11;15.10;99.90
6662;DHT22;3367;48.714;8.994;2023-08-07T12:30:38;15.40;99.90
6662;DHT22;3367;48.714;8.994;2023-08-07T12:33:05;15.70;1.00
6662;DHT22;3367;48.714;8.994;2023-08-07T12:35:33;16.00;28.40
6662;DHT22;3367;48.714;8.994;2023-08-07T12:38:00;16.20;1.00
6662;DHT22;3367;48.714;8.994;2023-08-07T12:40:27;16.40;99.90
6662;DHT22;3367;48.714;8.994;2023-08-07T12:42:54;16.50;1.00
6662;DHT22;3367;48.714;8.994;2023-08-07T12:45:22;16.50;1.00
6662;DHT22;3367;48.714;8.994;2023-08-07T12:47:49;16.60;1.00
6662;DHT22;3367;48.714;8.994;2023-08-07T12:50:16;16.40;1.00
6662;DHT22;3367;48.714;8.994;2023-08-07T12:52:42;16.40;1.00
6662;DHT22;3367;48.714;8.994;2023-08-07T12:55:10;16.20;1.00
6662;DHT22;3367;48.714;8.994;2023-08-07T12:57:37;16.20;1.00
6662;DHT22;3367;48.714;8.994;2023-08-07T13:00:05;16.10;1.00
6662;DHT22;3367;48.714;8.994;2023-08-07T13:02:34;16.10;1.00
6662;DHT22;3367;48.714;8.994;2023-08-07T13:05:01;16.30;1.00
6662;DHT22;3367;48.714;8.994;2023-08-07T13:07:28;16.50;1.00
6662;DHT22;3367;48.714;8.994;2023-08-07T13:09:54;16.70;1.00
6662;DHT22;3367;48.714;8.994;2023-08-07T13:12:22;16.70;1.00
6662;DHT22;3367;48.714;8.994;2023-08-07T13:14:49;16.80;1.00
6662;DHT22;3367;48.714;8.994;2023-08-07T13:17:16;17.00;1.00
6662;DHT22;3367;48.714;8.994;2023-08-07T13:19:44;16.80;1.00
6662;DHT22;3367;48.714;8.994;2023-08-07T13:22:10;16.70;1.00
6662;DHT22;3367;48.714;8.994;2023-08-07T13:24:37;16.70;1.00
6662;DHT22;3367;48.714;8.994;2023-08-07T13:27:04;16.70;1.00
6662;DHT22;3367;48.714;8.994;2023-08-07T13:29:31;16.70;1.00
6662;DHT22;3367;48.714;8.994;2023-08-07T13:31:58;16.80;1.00
6662;DHT22;3367;48.714;8.994;2023-08-07T13:34:25;17.10;1.00
6662;DHT22;3367;48.714;8.994;2023-08-07T13:36:53;17.40;1.00
6662;DHT22;3367;48.714;8.994;2023-08-07T13:39:19;17.50;1.00
6662;DHT22;3367;48.714;8.994;2023-08-07T13:41:46;17.70;1.00
6662;DHT22;3367;48.714;8.994;2023-08-07T13:44:13;17.70;1.00
6662;DHT22;3367;48.714;8.994;2023-08-07T13:46:40;17.80;1.00
6662;DHT22;3367;48.714;8.994;2023-08-07T13:49:06;17.80;1.00
6662;DHT22;3367;48.714;8.994;2023-08-07T13:51:33;18.00;1.00
6662;DHT22;3367;48.714;8.994;2023-08-07T13:54:01;18.00;1.00
6662;DHT22;3367;48.714;8.994;2023-08-07T13:56:28;18.10;1.00
6662;DHT22;3367;48.714;8.994;2023-08-07T13:58:55;18.30;1.00
6662;DHT22;3367;48.714;8.994;2023-08-07T14:01:21;18.40;1.00
6662;DHT22;3367;48.714;8.994;2023-08-07T14:03:48;18.40;1.00
6662;DHT22;3367;48.714;8.994;2023-08-07T14:06:15;18.30;1.00
6662;DHT22;3367;48.714;8.994;2023-08-07T14:08:41;18.10;1.00
6662;DHT22;3367;48.714;8.994;2023-08-07T14:11:09;18.00;1.00
6662;DHT22;3367;48.714;8.994;2023-08-07T14:13:37;18.00;1.00
6662;DHT22;3367;48.714;8.994;2023-08-07T14:16:04;18.20;1.00
6662;DHT22;3367;48.714;8.994;2023-08-07T14:18:30;18.40;1.00
6662;DHT22;3367;48.714;8.994;2023-08-07T14:20:57;18.60;1.00
6662;DHT22;3367;48.714;8.994;2023-08-07T14:23:24;18.80;1.00
6662;DHT22;3367;48.714;8.994;2023-08-07T14:25:51;18.90;1.00
6662;DHT22;3367;48.714;8.994;2023-08-07T14:28:19;18.90;1.00
6662;DHT22;3367;48.714;8.994;2023-08-07T14:30:47;18.70;1.00
6662;DHT22;3367;48.714;8.994;2023-08-07T14:33:14;18.70;1.00
6662;DHT22;3367;48.714;8.994;2023-08-07T14:35:42;18.50;1.00
6662;DHT22;3367;48.714;8.994;2023-08-07T14:38:09;18.40;1.00
6662;DHT22;3367;48.714;8.994;2023-08-07T14:40:36;18.30;1.00
6662;DHT22;3367;48.714;8.994;2023-08-07T14:43:06;17.90;1.00
6662;DHT22;3367;48.714;8.994;2023-08-07T14:45:34;17.70;1.00
6662;DHT22;3367;48.714;8.994;2023-08-07T14:48:02;17.30;1.00
6662;DHT22;3367;48.714;8.994;2023-08-07T14:50:29;17.10;1.00
6662;DHT22;3367;48.714;8.994;2023-08-07T14:52:56;17.00;1.00
6662;DHT22;3367;48.714;8.994;2023-08-07T14:55:23;17.00;1.00
6662;DHT22;3367;48.714;8.994;2023-08-07T14:57:49;16.90;1.00
6662;DHT22;3367;48.714;8.994;2023-08-07T15:00:17;16.80;1.00
6662;DHT22;3367;48.714;8.994;2023-08-07T15:02:46;16.80;1.00
6662;DHT22;3367;48.714;8.994;2023-08-07T15:05:13;16.70;1.00
6662;DHT22;3367;48.714;8.994;2023-08-07T15:07:40;16.80;1.00
6662;DHT22;3367;48.714;8.994;2023-08-07T15:10:08;17.00;1.00
6662;DHT22;3367;48.714;8.994;2023-08-07T15:12:34;17.10;1.00
6662;DHT22;3367;48.714;8.994;2023-08-07T15:15:01;17.30;1.00
6662;DHT22;3367;48.714;8.994;2023-08-07T15:17:28;17.20;1.00
6662;DHT22;3367;48.714;8.994;2023-08-07T15:19:56;17.30;1.00
6662;DHT22;3367;48.714;8.994;2023-08-07T15:22:23;17.40;1.00
6662;DHT22;3367;48.714;8.994;2023-08-07T15:24:49;17.50;1.00
6662;DHT22;3367;48.714;8.994;2023-08-07T15:27:16;17.50;1.00
6662;DHT22;3367;48.714;8.994;2023-08-07T15:29:44;17.50;1.00
6662;DHT22;3367;48.714;8.994;2023-08-07T15:32:12;17.50;1.00
6662;DHT22;3367;48.714;8.994;2023-08-07T15:34:39;17.50;1.00
6662;DHT22;3367;48.714;8.994;2023-08-07T15:37:08;17.50;1.00
6662;DHT22;3367;48.714;8.994;2023-08-07T15:39:34;17.60;1.00
6662;DHT22;3367;48.714;8.994;2023-08-07T15:42:01;17.80;1.00
6662;DHT22;3367;48.714;8.994;2023-08-07T15:44:28;17.80;1.00
6662;DHT22;3367;48.714;8.994;2023-08-07T15:46:54;18.00;1.00
6662;DHT22;3367;48.714;8.994;2023-08-07T15:49:21;17.80;1.00
6662;DHT22;3367;48.714;8.994;2023-08-07T15:51:48;17.70;1.00
6662;DHT22;3367;48.714;8.994;2023-08-07T15:54:16;17.60;1.00
6662;DHT22;3367;48.714;8.994;2023-08-07T15:56:43;17.70;1.00
6662;DHT22;3367;48.714;8.994;2023-08-07T15:59:10;17.80;1.00
6662;DHT22;3367;48.714;8.994;2023-08-07T16:01:36;17.90;1.00
6662;DHT22;3367;48.714;8.994;2023-08-07T16:04:03;17.90;1.00
6662;DHT22;3367;48.714;8.994;2023-08-07T16:06:30;17.90;1.00
6662;DHT22;3367;48.714;8.994;2023-08-07T16:08:57;18.00;1.00
6662;DHT22;3367;48.714;8.994;2023-08-07T16:11:25;18.10;1.00
6662;DHT22;3367;48.714;8.994;2023-08-07T16:13:52;18.00;1.00
6662;DHT22;3367;48.714;8.994;2023-08-07T16:16:18;17.90;1.00
6662;DHT22;3367;48.714;8.994;2023-08-07T16:18:45;17.90;1.00
6662;DHT22;3367;48.714;8.994;2023-08-07T16:21:12;17.90;1.00